Time;durP1;ratioP1;P1;durP2;ratioP2;P2;SDS_P1;SDS_P2;PMS_P1;PMS_P2;Temp;Humidity;BMP_temperature;BMP_pressure;BME280_temperature;BME280_humidity;BME280_pressure;Samples;Min_cycle;Max_cycle;Signal;HPM_P1;HPM_P2
2022/09/20 00:00:10;;;;;;;1999.90;999.90;;;10.70;99.90;;;;;;5267201;28;20043;-70
2022/09/20 00:02:41;;;;;;;1999.90;999.90;;;10.60;99.90;;;;;;5267371;28;20024;-70
2022/09/20 00:05:12;;;;;;;1999.90;999.90;;;10.50;99.90;;;;;;5267292;28;20051;-70
2022/09/20 00:07:46;;;;;;;1999.90;999.90;;;10.20;99.90;;;;;;5267432;28;20016;-70
2022/09/20 00:10:17;;;;;;;1999.90;999.90;;;10.30;99.90;;;;;;5267133;28;20482;-70
2022/09/20 00:12:48;;;;;;;1999.90;999.90;;;10.80;99.90;;;;;;5267251;28;20032;-70
2022/09/20 00:15:18;;;;;;;1999.90;999.90;;;10.80;99.90;;;;;;5267228;28;20392;-71
2022/09/20 00:17:49;;;;;;;1999.90;999.90;;;10.70;99.90;;;;;;5267007;28;20032;-70
2022/09/20 00:20:20;;;;;;;1999.90;999.90;;;10.30;99.90;;;;;;5266958;28;20454;-70
2022/09/20 00:22:51;;;;;;;1999.90;999.90;;;10.30;99.90;;;;;;5267213;28;20016;-70
2022/09/20 00:25:22;;;;;;;1999.90;999.90;;;10.50;99.90;;;;;;5265926;28;20032;-70
2022/09/20 00:27:53;;;;;;;1999.90;999.90;;;10.40;99.90;;;;;;5267109;28;20013;-70
2022/09/20 00:30:24;;;;;;;1999.90;999.90;;;10.20;99.90;;;;;;5266988;28;20035;-70
2022/09/20 00:32:55;;;;;;;1999.90;999.90;;;10.30;99.90;;;;;;5267032;28;20020;-70
2022/09/20 00:35:26;;;;;;;1999.90;999.90;;;10.20;99.90;;;;;;5266992;28;20153;-70
2022/09/20 00:37:57;;;;;;;1999.90;999.90;;;10.30;99.90;;;;;;5266850;28;20498;-70
2022/09/20 00:40:29;;;;;;;1999.90;999.90;;;10.10;99.90;;;;;;5265582;28;20036;-70
2022/09/20 00:42:59;;;;;;;1999.90;999.90;;;10.30;99.90;;;;;;5267079;28;20028;-70
2022/09/20 00:45:31;;;;;;;1999.90;999.90;;;10.60;99.90;;;;;;5267095;28;20028;-70
2022/09/20 00:48:17;;;;;;;1999.90;999.90;;;10.30;99.90;;;;;;5270270;28;20072;-70
2022/09/20 00:50:53;;;;;;;1999.90;999.90;;;10.00;99.90;;;;;;5270601;28;20086;-70
2022/09/20 00:53:30;;;;;;;1999.90;999.90;;;9.90;99.90;;;;;;5270772;28;20032;-70
2022/09/20 00:56:20;;;;;;;1999.90;999.90;;;10.00;99.90;;;;;;5270536;28;20024;-70
2022/09/20 00:59:00;;;;;;;1999.90;999.90;;;9.90;99.90;;;;;;5270649;28;20063;-70
2022/09/20 01:01:31;;;;;;;1999.90;999.90;;;10.30;99.90;;;;;;5270702;28;20028;-70
2022/09/20 01:04:03;;;;;;;1999.90;999.90;;;10.40;99.90;;;;;;5270673;28;20463;-70
2022/09/20 01:06:34;;;;;;;1999.90;999.90;;;10.00;99.90;;;;;;5270459;28;20016;-70
2022/09/20 01:09:06;;;;;;;1999.90;999.90;;;9.80;99.90;;;;;;5270233;28;20509;-70
2022/09/20 01:11:39;;;;;;;1999.90;999.90;;;10.20;99.90;;;;;;5269147;28;20008;-70
2022/09/20 01:14:13;;;;;;;1999.90;999.90;;;10.10;99.90;;;;;;5270570;28;20085;-70
2022/09/20 01:16:44;;;;;;;1999.90;999.90;;;10.10;99.90;;;;;;5270659;28;20411;-70
2022/09/20 01:19:32;;;;;;;1999.90;999.90;;;10.00;99.90;;;;;;5270145;28;20115;-70
2022/09/20 01:22:10;;;;;;;1999.90;999.90;;;10.10;99.90;;;;;;5270155;28;20055;-70
2022/09/20 01:24:54;;;;;;;1999.90;999.90;;;10.20;99.90;;;;;;5270085;28;20023;-70
2022/09/20 01:27:34;;;;;;;1999.90;999.90;;;10.10;99.90;;;;;;5270010;28;20130;-70
2022/09/20 01:30:08;;;;;;;1999.90;999.90;;;10.20;99.90;;;;;;5269902;28;20364;-70
2022/09/20 01:33:03;;;;;;;1999.90;999.90;;;9.90;99.90;;;;;;5269789;28;20257;-70
2022/09/20 01:35:35;;;;;;;1999.90;999.90;;;9.90;99.90;;;;;;5269812;28;20016;-70
2022/09/20 01:38:14;;;;;;;1999.90;999.90;;;9.90;99.90;;;;;;5269554;28;20102;-70
2022/09/20 01:40:55;;;;;;;1999.90;999.90;;;9.80;99.90;;;;;;5269651;28;20450;-70
2022/09/20 01:43:51;;;;;;;1999.90;999.90;;;10.10;99.90;;;;;;5269752;28;20047;-70
2022/09/20 01:46:34;;;;;;;1999.90;999.90;;;9.80;99.90;;;;;;5269581;28;20093;-70
2022/09/20 01:49:31;;;;;;;1999.90;999.90;;;10.00;99.90;;;;;;5269203;28;20044;-70
2022/09/20 01:52:37;;;;;;;1999.90;999.90;;;10.10;99.90;;;;;;5269347;28;20107;-70
2022/09/20 01:55:37;;;;;;;1999.90;999.90;;;9.80;99.90;;;;;;5269356;28;20097;-70
2022/09/20 01:58:42;;;;;;;1999.90;999.90;;;9.90;99.90;;;;;;5269075;28;20363;-70
2022/09/20 02:01:25;;;;;;;1999.90;999.90;;;9.40;99.90;;;;;;5269315;28;20050;-71
2022/09/20 02:04:02;;;;;;;1999.90;999.90;;;10.00;99.90;;;;;;5269233;28;20032;-71
2022/09/20 02:06:55;;;;;;;1999.90;999.90;;;9.90;99.90;;;;;;5269192;28;20059;-70
2022/09/20 02:09:55;;;;;;;1999.90;999.90;;;10.00;99.90;;;;;;5268910;28;20039;-70
2022/09/20 02:12:57;;;;;;;1999.90;999.90;;;9.80;99.90;;;;;;5269073;28;20073;-70
2022/09/20 02:15:53;;;;;;;1999.90;999.90;;;8.80;99.90;;;;;;5269032;28;20046;-70
2022/09/20 02:18:36;;;;;;;1999.90;999.90;;;9.70;99.90;;;;;;5269142;28;20036;-70
2022/09/20 02:21:18;;;;;;;1999.90;999.90;;;9.80;99.90;;;;;;5269187;28;20032;-70
2022/09/20 02:24:07;;;;;;;1999.90;999.90;;;9.70;99.90;;;;;;5268855;28;20028;-70
2022/09/20 02:26:46;;;;;;;1999.90;999.90;;;9.70;99.90;;;;;;5268780;28;20024;-70
2022/09/20 02:29:41;;;;;;;1999.90;999.90;;;9.40;99.90;;;;;;5268759;28;20035;-70
2022/09/20 02:32:35;;;;;;;1999.90;999.90;;;10.20;99.90;;;;;;5268746;28;20032;-70
2022/09/20 02:35:18;;;;;;;1999.90;999.90;;;9.50;99.90;;;;;;5268692;28;20035;-70
2022/09/20 02:37:57;;;;;;;1999.90;999.90;;;8.50;99.90;;;;;;5268509;28;20028;-70
2022/09/20 02:40:47;;;;;;;1999.90;999.90;;;9.50;99.90;;;;;;5268868;28;20064;-70
2022/09/20 02:43:39;;;;;;;1999.90;999.90;;;10.30;99.90;;;;;;5267221;28;20483;-70
2022/09/20 02:46:27;;;;;;;1999.90;999.90;;;9.40;99.90;;;;;;5268387;28;20119;-70
2022/09/20 02:49:22;;;;;;;1999.90;999.90;;;9.50;99.90;;;;;;5268239;28;20092;-70
2022/09/20 02:52:02;;;;;;;1999.90;999.90;;;9.30;99.90;;;;;;5268507;28;20115;-70
2022/09/20 02:54:39;;;;;;;1999.90;999.90;;;9.50;99.90;;;;;;5268635;28;20024;-70
2022/09/20 02:57:41;;;;;;;1999.90;999.90;;;9.20;99.90;;;;;;5268330;28;20043;-70
2022/09/20 03:00:25;;;;;;;1999.90;999.90;;;9.10;99.90;;;;;;5268105;28;20036;-70
2022/09/20 03:03:12;;;;;;;1999.90;999.90;;;9.20;99.90;;;;;;5268119;28;20379;-70
2022/09/20 03:06:20;;;;;;;1999.90;999.90;;;8.50;99.90;;;;;;5268110;28;20472;-70
2022/09/20 03:08:57;;;;;;;1999.90;999.90;;;8.80;99.90;;;;;;5267440;28;20071;-70
2022/09/20 03:12:13;;;;;;;1999.90;999.90;;;9.80;99.90;;;;;;5268001;28;20024;-70
2022/09/20 03:15:18;;;;;;;1999.90;999.90;;;8.90;99.90;;;;;;5256923;28;20556;-70
2022/09/20 03:18:16;;;;;;;1999.90;999.90;;;8.50;99.90;;;;;;5267508;28;20058;-70
2022/09/20 03:20:59;;;;;;;1999.90;999.90;;;8.40;99.90;;;;;;5261213;28;20483;-70
2022/09/20 03:23:39;;;;;;;1999.90;999.90;;;9.00;99.90;;;;;;5267718;28;20031;-70
2022/09/20 03:26:28;;;;;;;1999.90;999.90;;;9.10;99.90;;;;;;5267914;28;20093;-70
2022/09/20 03:29:08;;;;;;;1999.90;999.90;;;9.00;99.90;;;;;;5267883;28;20020;-70
2022/09/20 03:32:07;;;;;;;1999.90;999.90;;;9.00;99.90;;;;;;5267490;28;20028;-70
2022/09/20 03:35:13;;;;;;;1999.90;999.90;;;9.20;99.90;;;;;;5268000;28;20398;-70
2022/09/20 03:37:55;;;;;;;1999.90;999.90;;;9.10;99.90;;;;;;5266518;28;20757;-70
2022/09/20 03:40:55;;;;;;;1999.90;999.90;;;8.90;99.90;;;;;;5267429;28;20059;-70
2022/09/20 03:43:47;;;;;;;1999.90;999.90;;;9.10;99.90;;;;;;5267955;28;20471;-70
2022/09/20 03:46:36;;;;;;;1999.90;999.90;;;8.80;99.90;;;;;;5267612;28;20402;-70
2022/09/20 03:49:16;;;;;;;1999.90;999.90;;;8.90;99.90;;;;;;5267242;28;20048;-70
2022/09/20 03:52:02;;;;;;;1999.90;999.90;;;8.70;99.90;;;;;;5267528;28;20032;-70
2022/09/20 03:55:09;;;;;;;1999.90;999.90;;;9.00;99.90;;;;;;5266102;28;20551;-70
2022/09/20 03:58:15;;;;;;;1999.90;999.90;;;9.10;99.90;;;;;;5267613;28;20486;-70
2022/09/20 04:01:15;;;;;;;1999.90;999.90;;;8.80;99.90;;;;;;5258739;28;20471;-70
2022/09/20 04:03:58;;;;;;;1999.90;999.90;;;8.70;99.90;;;;;;5267409;28;20036;-70
2022/09/20 04:06:37;;;;;;;1999.90;999.90;;;9.00;99.90;;;;;;5267208;28;20099;-70
2022/09/20 04:09:13;;;;;;;1999.90;999.90;;;9.20;99.90;;;;;;5267151;28;20033;-70
2022/09/20 04:11:58;;;;;;;1999.90;999.90;;;9.10;99.90;;;;;;5267204;28;20062;-70
2022/09/20 04:14:33;;;;;;;1999.90;999.90;;;9.20;99.90;;;;;;5267143;28;20028;-70
2022/09/20 04:17:31;;;;;;;1999.90;999.90;;;9.10;99.90;;;;;;5267184;28;20032;-70
2022/09/20 04:20:16;;;;;;;1999.90;999.90;;;9.00;99.90;;;;;;5266874;28;20048;-70
2022/09/20 04:22:51;;;;;;;1999.90;999.90;;;9.00;99.90;;;;;;5270400;28;20062;-70
2022/09/20 04:25:29;;;;;;;1999.90;999.90;;;8.90;99.90;;;;;;5271211;28;20365;-70
2022/09/20 04:28:07;;;;;;;1999.90;999.90;;;8.90;99.90;;;;;;5271239;28;20034;-70
2022/09/20 04:30:42;;;;;;;1999.90;999.90;;;8.70;99.90;;;;;;5271178;28;20126;-70
2022/09/20 04:33:29;;;;;;;1999.90;999.90;;;9.10;99.90;;;;;;5271177;28;20490;-70
2022/09/20 04:36:28;;;;;;;1999.90;999.90;;;9.00;99.90;;;;;;5271252;28;20391;-70
2022/09/20 04:39:08;;;;;;;1999.90;999.90;;;8.90;99.90;;;;;;5270814;28;20063;-71
2022/09/20 04:42:07;;;;;;;1999.90;999.90;;;9.20;99.90;;;;;;5270987;28;20056;-70
2022/09/20 04:45:07;;;;;;;1999.90;999.90;;;9.30;99.90;;;;;;5270797;28;20032;-70
2022/09/20 04:48:03;;;;;;;1999.90;999.90;;;9.40;99.90;;;;;;5271057;28;20529;-70
2022/09/20 04:50:51;;;;;;;1999.90;999.90;;;9.40;99.90;;;;;;5270860;28;20632;-70
2022/09/20 04:53:59;;;;;;;1999.90;999.90;;;9.80;99.90;;;;;;5271169;28;20031;-70
2022/09/20 04:56:48;;;;;;;1999.90;999.90;;;9.70;99.90;;;;;;5270812;28;20093;-70
2022/09/20 05:00:16;;;;;;;1999.90;999.90;;;10.10;99.90;;;;;;5270770;28;20036;-70
2022/09/20 05:02:59;;;;;;;1999.90;999.90;;;10.50;99.90;;;;;;5206293;28;20558;-70
2022/09/20 05:05:35;;;;;;;1999.90;999.90;;;10.50;99.90;;;;;;5205968;28;20029;-70
2022/09/20 05:08:45;;;;;;;1999.90;999.90;;;10.80;99.90;;;;;;5205516;28;20489;-70
2022/09/20 05:11:29;;;;;;;1999.90;999.90;;;11.10;99.90;;;;;;5205374;28;20083;-70
2022/09/20 05:14:15;;;;;;;1999.90;999.90;;;11.50;99.90;;;;;;5188976;28;20068;-70
2022/09/20 05:17:17;;;;;;;1999.90;999.90;;;11.70;99.90;;;;;;5205712;28;20029;-71
2022/09/20 05:20:33;;;;;;;1999.90;999.90;;;12.10;99.90;;;;;;5205389;28;20132;-70
2022/09/20 05:23:30;;;;;;;1999.90;999.90;;;12.10;99.90;;;;;;5205665;28;20100;-70
2022/09/20 05:26:10;;;;;;;1999.90;999.90;;;12.50;99.90;;;;;;5205669;28;20468;-70
2022/09/20 05:28:52;;;;;;;1999.90;999.90;;;12.80;99.90;;;;;;5205692;28;20842;-71
2022/09/20 05:31:44;;;;;;;1999.90;999.90;;;13.00;99.90;;;;;;5205442;28;20112;-71
2022/09/20 05:34:41;;;;;;;1999.90;999.90;;;13.00;99.90;;;;;;5256103;28;20090;-70
2022/09/20 05:37:32;;;;;;;1999.90;999.90;;;13.10;99.90;;;;;;5270111;28;20024;-70
2022/09/20 05:40:18;;;;;;;1999.90;999.90;;;13.30;99.90;;;;;;5258855;28;20044;-71
2022/09/20 05:43:10;;;;;;;1999.90;999.90;;;13.60;99.90;;;;;;5269973;28;20032;-71
2022/09/20 05:45:54;;;;;;;1999.90;999.90;;;13.90;99.90;;;;;;5269682;28;20069;-70
2022/09/20 05:48:41;;;;;;;1999.90;999.90;;;14.00;99.90;;;;;;5269584;28;20039;-71
2022/09/20 05:51:45;;;;;;;1999.90;999.90;;;14.20;99.90;;;;;;5269760;28;20024;-71
2022/09/20 05:54:25;;;;;;;1999.90;999.90;;;14.60;99.90;;;;;;5269572;28;20063;-71
2022/09/20 05:57:25;;;;;;;1999.90;999.90;;;14.80;99.90;;;;;;5269497;28;20384;-71
2022/09/20 06:00:13;;;;;;;1999.90;999.90;;;14.90;99.90;;;;;;5269361;28;20032;-71
2022/09/20 06:03:04;;;;;;;1999.90;999.90;;;15.10;99.90;;;;;;5269342;28;20308;-71
2022/09/20 06:05:54;;;;;;;1999.90;999.90;;;15.30;99.90;;;;;;5269409;28;20028;-71
2022/09/20 06:08:56;;;;;;;1999.90;999.90;;;15.90;99.90;;;;;;5269420;28;20102;-71
2022/09/20 06:11:42;;;;;;;1999.90;999.90;;;15.70;99.90;;;;;;5269214;28;20099;-71
2022/09/20 06:14:19;;;;;;;1999.90;999.90;;;16.30;99.90;;;;;;5269199;28;20057;-71
2022/09/20 06:17:01;;;;;;;1999.90;999.90;;;16.80;99.90;;;;;;5269058;28;20038;-71
2022/09/20 06:19:37;;;;;;;1999.90;999.90;;;17.10;99.90;;;;;;5268813;28;20047;-71
2022/09/20 06:22:21;;;;;;;1999.90;999.90;;;17.60;99.90;;;;;;5268851;28;20020;-71
2022/09/20 06:25:07;;;;;;;1999.90;999.90;;;17.80;99.90;;;;;;5268614;28;20016;-71
2022/09/20 06:28:05;;;;;;;1999.90;999.90;;;17.80;99.90;;;;;;5268705;28;20038;-71
2022/09/20 06:30:42;;;;;;;1999.90;999.90;;;18.20;99.90;;;;;;5265916;28;20058;-71
2022/09/20 06:33:16;;;;;;;1999.90;999.90;;;18.30;99.90;;;;;;5268800;28;20435;-71
2022/09/20 06:42:00;;;;;;;1999.90;999.90;;;18.90;99.90;;;;;;5268421;28;20051;-71
2022/09/20 06:44:31;;;;;;;1999.90;999.90;;;19.00;99.90;;;;;;5267855;28;20016;-72
2022/09/20 06:47:02;;;;;;;1999.90;999.90;;;18.90;99.90;;;;;;5268434;28;20052;-72
2022/09/20 06:49:34;;;;;;;1999.90;999.90;;;19.10;99.90;;;;;;5268285;28;20048;-72
2022/09/20 06:52:07;;;;;;;1999.90;999.90;;;19.00;99.90;;;;;;5268346;28;20036;-72
2022/09/20 06:54:39;;;;;;;1999.90;999.90;;;19.10;99.90;;;;;;5268313;28;20149;-72
2022/09/20 06:57:14;;;;;;;1999.90;999.90;;;19.40;99.90;;;;;;5268029;28;20085;-72
2022/09/20 06:59:44;;;;;;;1999.90;999.90;;;19.50;99.90;;;;;;5267914;28;20495;-72
2022/09/20 07:02:15;;;;;;;1999.90;999.90;;;19.20;99.90;;;;;;5268351;28;20059;-72
2022/09/20 07:04:46;;;;;;;1999.90;999.90;;;19.60;99.90;;;;;;5268266;28;20401;-72
2022/09/20 07:07:18;;;;;;;1999.90;999.90;;;19.60;99.90;;;;;;5268354;28;20115;-72
2022/09/20 07:09:48;;;;;;;1999.90;999.90;;;19.60;99.90;;;;;;5268108;28;20086;-75
2022/09/20 07:12:20;;;;;;;1999.90;999.90;;;19.40;99.90;;;;;;5267826;28;20483;-71
2022/09/20 07:14:50;;;;;;;1999.90;999.90;;;19.40;99.90;;;;;;5267881;28;20024;-71
2022/09/20 07:17:21;;;;;;;1999.90;999.90;;;19.20;99.90;;;;;;5268012;28;20095;-73
2022/09/20 07:19:52;;;;;;;1999.90;999.90;;;19.50;99.90;;;;;;5267632;28;20404;-72
2022/09/20 07:22:23;;;;;;;1999.90;999.90;;;19.50;99.90;;;;;;5267901;28;20023;-71
2022/09/20 07:24:54;;;;;;;1999.90;999.90;;;19.20;99.90;;;;;;5267855;28;20734;-72
2022/09/20 07:27:24;;;;;;;1999.90;999.90;;;19.60;99.90;;;;;;5268026;28;20024;-72
2022/09/20 07:29:55;;;;;;;1999.90;999.90;;;19.80;99.90;;;;;;5267546;28;20028;-72
2022/09/20 07:32:26;;;;;;;1999.90;999.90;;;19.70;99.90;;;;;;5267516;28;20024;-71
2022/09/20 07:34:57;;;;;;;1999.90;999.90;;;19.60;99.90;;;;;;5267556;28;20134;-71
2022/09/20 07:37:28;;;;;;;1999.90;999.90;;;19.70;99.90;;;;;;5267496;28;20032;-71
2022/09/20 07:39:59;;;;;;;1999.90;999.90;;;19.70;99.90;;;;;;5267260;28;20055;-72
2022/09/20 07:42:30;;;;;;;1999.90;999.90;;;20.00;99.90;;;;;;5267421;28;20392;-73
2022/09/20 07:45:02;;;;;;;1999.90;999.90;;;20.10;99.90;;;;;;5267377;28;20062;-73
2022/09/20 07:47:34;;;;;;;1999.90;999.90;;;20.30;99.90;;;;;;5267420;28;20379;-74
2022/09/20 07:50:05;;;;;;;1999.90;999.90;;;20.50;99.90;;;;;;5267042;28;20063;-72
2022/09/20 07:52:36;;;;;;;1999.90;999.90;;;20.50;99.90;;;;;;5267542;28;20051;-71
2022/09/20 07:55:07;;;;;;;1999.90;999.90;;;20.10;99.90;;;;;;5267795;28;20116;-72
2022/09/20 07:57:38;;;;;;;1999.90;999.90;;;20.30;99.90;;;;;;5271630;28;20012;-73
2022/09/20 08:00:11;;;;;;;1999.90;999.90;;;20.70;99.90;;;;;;5271534;28;20046;-74
2022/09/20 08:02:43;;;;;;;1999.90;999.90;;;20.40;99.90;;;;;;5271592;28;20020;-73
2022/09/20 08:05:14;;;;;;;1999.90;999.90;;;20.50;99.90;;;;;;5270165;28;20031;-73
2022/09/20 08:07:45;;;;;;;1999.90;999.90;;;20.50;99.90;;;;;;5271171;28;20031;-72
2022/09/20 08:10:16;;;;;;;1999.90;999.90;;;20.50;99.90;;;;;;5271404;28;20116;-71
2022/09/20 08:12:47;;;;;;;1999.90;999.90;;;20.40;99.90;;;;;;5269495;28;20028;-73
2022/09/20 08:15:18;;;;;;;1999.90;999.90;;;20.50;99.90;;;;;;5270834;28;20020;-72
2022/09/20 08:17:49;;;;;;;1999.90;999.90;;;20.70;99.90;;;;;;5271256;28;20027;-73
2022/09/20 08:20:19;;;;;;;1999.90;999.90;;;20.40;99.90;;;;;;5270896;28;20040;-74
2022/09/20 08:22:54;;;;;;;1999.90;999.90;;;20.60;99.90;;;;;;5271028;28;20024;-72
2022/09/20 08:25:24;;;;;;;1999.90;999.90;;;20.80;99.90;;;;;;5271069;28;20059;-73
2022/09/20 08:27:55;;;;;;;1999.90;999.90;;;20.80;99.90;;;;;;5271241;28;20070;-71
2022/09/20 08:30:26;;;;;;;1999.90;999.90;;;20.80;99.90;;;;;;5271385;28;20019;-71
2022/09/20 08:32:58;;;;;;;1999.90;999.90;;;20.70;99.90;;;;;;5271123;28;20450;-71
2022/09/20 08:35:28;;;;;;;1999.90;999.90;;;21.00;99.90;;;;;;5271085;28;20466;-72
2022/09/20 08:37:59;;;;;;;1999.90;999.90;;;21.00;99.90;;;;;;5271019;28;20047;-73
2022/09/20 08:40:31;;;;;;;1999.90;999.90;;;21.00;99.90;;;;;;5270871;28;20433;-73
2022/09/20 08:43:02;;;;;;;1999.90;999.90;;;21.20;99.90;;;;;;5270682;28;20023;-72
2022/09/20 08:45:33;;;;;;;1999.90;999.90;;;21.10;99.90;;;;;;5270821;28;20114;-72
2022/09/20 08:48:09;;;;;;;1999.90;999.90;;;21.10;99.90;;;;;;5270540;28;20832;-72
2022/09/20 08:50:40;;;;;;;1999.90;999.90;;;21.10;99.90;;;;;;5270505;28;20051;-73
2022/09/20 08:53:13;;;;;;;1999.90;999.90;;;21.00;99.90;;;;;;5270406;28;20099;-73
2022/09/20 08:55:44;;;;;;;1999.90;999.90;;;20.30;99.90;;;;;;5270416;28;20039;-71
2022/09/20 08:58:15;;;;;;;1999.90;999.90;;;20.30;99.90;;;;;;5270391;28;20119;-72
2022/09/20 09:00:46;;;;;;;1999.90;999.90;;;20.90;99.90;;;;;;5270069;28;20048;-74
2022/09/20 09:03:18;;;;;;;1999.90;999.90;;;20.90;99.90;;;;;;5270297;28;20024;-73
2022/09/20 09:05:50;;;;;;;1999.90;999.90;;;21.40;99.90;;;;;;5270324;28;20028;-72
2022/09/20 09:08:26;;;;;;;1999.90;999.90;;;21.30;99.90;;;;;;5269194;28;20106;-71
2022/09/20 09:11:16;;;;;;;1999.90;999.90;;;21.50;99.90;;;;;;5270134;28;20546;-73
2022/09/20 09:14:03;;;;;;;1999.90;999.90;;;21.70;99.90;;;;;;5270126;28;20073;-72
2022/09/20 09:16:34;;;;;;;1999.90;999.90;;;21.70;99.90;;;;;;5270119;28;20379;-72
2022/09/20 09:19:25;;;;;;;1999.90;999.90;;;21.80;99.90;;;;;;5269911;28;20039;-71
2022/09/20 09:22:01;;;;;;;1999.90;999.90;;;21.60;99.90;;;;;;5270069;28;20060;-72
2022/09/20 09:24:32;;;;;;;1999.90;999.90;;;21.80;99.90;;;;;;5270172;28;20073;-72
2022/09/20 09:27:15;;;;;;;1999.90;999.90;;;22.00;99.90;;;;;;5269873;28;20471;-72
2022/09/20 09:29:55;;;;;;;1999.90;999.90;;;22.10;99.90;;;;;;5269855;28;20038;-72
2022/09/20 09:32:29;;;;;;;1999.90;999.90;;;22.00;99.90;;;;;;5270169;28;20417;-71
2022/09/20 09:35:24;;;;;;;1999.90;999.90;;;22.20;99.90;;;;;;5270260;28;20073;-71
2022/09/20 09:38:00;;;;;;;1999.90;999.90;;;22.30;99.90;;;;;;5270048;28;20036;-72
2022/09/20 09:40:32;;;;;;;1999.90;999.90;;;22.40;99.90;;;;;;5271748;28;20062;-72
2022/09/20 09:43:03;;;;;;;1999.90;999.90;;;22.50;99.90;;;;;;5272603;28;20380;-73
2022/09/20 09:45:37;;;;;;;1999.90;999.90;;;22.50;99.90;;;;;;5287235;28;20016;-71
2022/09/20 09:48:29;;;;;;;1999.90;999.90;;;22.40;99.90;;;;;;5290504;28;20015;-73
2022/09/20 09:51:15;;;;;;;1999.90;999.90;;;22.80;99.90;;;;;;5282436;28;20036;-74
2022/09/20 09:53:48;;;;;;;1999.90;999.90;;;22.70;99.90;;;;;;5269830;28;20560;-71
2022/09/20 09:56:36;;;;;;;1999.90;999.90;;;22.70;99.90;;;;;;5269589;28;20049;-73
2022/09/20 09:59:53;;;;;;;1999.90;999.90;;;22.80;99.90;;;;;;5269237;28;20024;-68
2022/09/20 10:02:48;;;;;;;1999.90;999.90;;;22.80;99.90;;;;;;5286674;28;20039;-68
2022/09/20 10:05:43;;;;;;;1999.90;999.90;;;22.70;99.90;;;;;;5290324;28;20422;-67
2022/09/20 10:08:44;;;;;;;1999.90;999.90;;;22.60;99.90;;;;;;5288769;28;20487;-68
2022/09/20 10:11:27;;;;;;;1999.90;999.90;;;22.40;99.90;;;;;;5290164;28;20107;-67
2022/09/20 10:14:24;;;;;;;1999.90;999.90;;;22.90;99.90;;;;;;5271505;28;20105;-77
2022/09/20 10:17:19;;;;;;;1999.90;999.90;;;22.70;99.90;;;;;;5268956;28;20095;-79
2022/09/20 10:20:12;;;;;;;1999.90;999.90;;;22.40;99.90;;;;;;5267640;28;20043;-70
2022/09/20 10:23:12;;;;;;;1999.90;999.90;;;22.90;99.90;;;;;;5269007;28;20032;-81
2022/09/20 10:25:53;;;;;;;1999.90;999.90;;;22.80;99.90;;;;;;5246767;28;20110;-86
2022/09/20 10:28:47;;;;;;;1999.90;999.90;;;23.10;99.90;;;;;;5248392;28;20039;-78
2022/09/20 10:31:38;;;;;;;1999.90;999.90;;;23.00;99.90;;;;;;5248638;28;20016;-79
2022/09/20 10:34:21;;;;;;;1999.90;999.90;;;23.10;99.90;;;;;;5247034;28;20427;-83
2022/09/20 10:36:56;;;;;;;1999.90;999.90;;;23.10;99.90;;;;;;5248313;28;20029;-86
2022/09/20 10:39:39;;;;;;;1999.90;999.90;;;22.90;99.90;;;;;;5246961;28;20071;-85
2022/09/20 10:45:31;;;;;;;1999.90;999.90;;;23.20;99.90;;;;;;5248028;28;20039;-85
2022/09/20 10:48:21;;;;;;;1999.90;999.90;;;23.00;99.90;;;;;;5247710;28;20028;-84
2022/09/20 10:51:01;;;;;;;1999.90;999.90;;;23.10;99.90;;;;;;5247874;28;20119;-83
2022/09/20 10:54:00;;;;;;;1999.90;999.90;;;23.20;99.90;;;;;;5246565;28;20108;-83
2022/09/20 10:56:46;;;;;;;1999.90;999.90;;;23.30;99.90;;;;;;5246717;28;20059;-83
2022/09/20 10:59:22;;;;;;;1999.90;999.90;;;23.20;99.90;;;;;;5246200;28;20306;-84
2022/09/20 11:02:19;;;;;;;1999.90;999.90;;;23.10;99.90;;;;;;5246124;28;20017;-83
2022/09/20 11:05:08;;;;;;;1999.90;999.90;;;22.80;99.90;;;;;;5247581;28;20483;-85
2022/09/20 11:08:10;;;;;;;1999.90;999.90;;;23.50;99.90;;;;;;5247902;28;20043;-83
2022/09/20 11:10:47;;;;;;;1999.90;999.90;;;23.00;99.90;;;;;;5247313;28;20029;-85
2022/09/20 11:13:32;;;;;;;1999.90;999.90;;;23.30;99.90;;;;;;5247446;28;20357;-83
2022/09/20 11:16:10;;;;;;;1999.90;999.90;;;23.20;99.90;;;;;;5247426;28;20036;-84
2022/09/20 11:18:59;;;;;;;1999.90;999.90;;;23.80;99.90;;;;;;5245708;28;20028;-84
2022/09/20 11:21:37;;;;;;;1999.90;999.90;;;23.10;99.90;;;;;;5247253;28;20040;-82
2022/09/20 11:24:29;;;;;;;1999.90;999.90;;;23.40;99.90;;;;;;5246122;28;20384;-84
2022/09/20 11:27:21;;;;;;;1999.90;999.90;;;23.70;99.90;;;;;;5246812;28;20024;-83
2022/09/20 11:29:57;;;;;;;1999.90;999.90;;;23.50;99.90;;;;;;5246715;28;20078;-84
2022/09/20 11:32:38;;;;;;;1999.90;999.90;;;23.60;99.90;;;;;;5245899;28;20035;-84
2022/09/20 11:35:13;;;;;;;1999.90;999.90;;;23.40;99.90;;;;;;5246491;28;20024;-83
2022/09/20 11:37:51;;;;;;;1999.90;999.90;;;23.60;99.90;;;;;;5246098;28;20446;-84
2022/09/20 11:40:37;;;;;;;1999.90;999.90;;;23.50;99.90;;;;;;5245818;28;20037;-82
2022/09/20 11:43:10;;;;;;;1999.90;999.90;;;23.30;99.90;;;;;;5245507;28;20724;-83
2022/09/20 11:45:43;;;;;;;1999.90;999.90;;;23.70;99.90;;;;;;5267608;28;20016;-82
2022/09/20 11:48:37;;;;;;;1999.90;999.90;;;23.40;99.90;;;;;;5288755;28;20032;-81
2022/09/20 11:51:35;;;;;;;1999.90;999.90;;;23.60;99.90;;;;;;5281533;28;20036;-84
2022/09/20 11:54:31;;;;;;;1999.90;999.90;;;23.00;99.90;;;;;;5267765;28;20672;-84
2022/09/20 11:57:04;;;;;;;1999.90;999.90;;;23.30;99.90;;;;;;5259482;28;20040;-84
2022/09/20 11:59:39;;;;;;;1999.90;999.90;;;23.30;99.90;;;;;;5267942;28;20436;-86
2022/09/20 12:02:28;;;;;;;1999.90;999.90;;;23.20;99.90;;;;;;5268646;28;20043;-78
2022/09/20 12:05:00;;;;;;;1999.90;999.90;;;23.70;99.90;;;;;;5267651;28;20055;-77
2022/09/20 12:07:38;;;;;;;1999.90;999.90;;;23.80;99.90;;;;;;5267302;28;20032;-80
2022/09/20 12:10:34;;;;;;;1999.90;999.90;;;24.00;99.90;;;;;;5266100;28;20080;-80
2022/09/20 12:13:23;;;;;;;1999.90;999.90;;;23.90;99.90;;;;;;5265915;28;20026;-81
2022/09/20 12:16:00;;;;;;;1999.90;999.90;;;24.00;99.90;;;;;;5267462;28;20026;-83
2022/09/20 12:18:52;;;;;;;1999.90;999.90;;;23.90;99.90;;;;;;5267119;28;20055;-82
2022/09/20 12:21:23;;;;;;;1999.90;999.90;;;23.40;99.90;;;;;;5256766;28;20040;-77
2022/09/20 12:26:40;;;;;;;1999.90;999.90;;;23.70;99.90;;;;;;5398835;22;20049;-75
2022/09/20 12:29:23;;;;;;;1999.90;999.90;;;23.60;99.90;;;;;;5188957;28;20079;-77
2022/09/20 12:31:58;;;;;;;1999.90;999.90;;;23.00;99.90;;;;;;5206659;28;20393;-76
2022/09/20 12:34:35;;;;;;;1999.90;999.90;;;23.80;99.90;;;;;;5206633;28;20417;-76
2022/09/20 12:37:06;;;;;;;1999.90;999.90;;;23.60;99.90;;;;;;5206272;28;20068;-76
2022/09/20 12:39:39;;;;;;;1999.90;999.90;;;23.60;99.90;;;;;;5206439;28;20029;-76
2022/09/20 12:42:10;;;;;;;1999.90;999.90;;;23.70;99.90;;;;;;5207286;28;20112;-76
2022/09/20 12:45:00;;;;;;;1999.90;999.90;;;23.80;99.90;;;;;;5210420;28;20028;-79
2022/09/20 12:47:35;;;;;;;1999.90;999.90;;;23.30;99.90;;;;;;5209716;28;20026;-74
2022/09/20 12:53:11;;;;;;;1999.90;999.90;;;23.60;99.90;;;;;;5209857;28;20036;-74
2022/09/20 12:56:04;;;;;;;1999.90;999.90;;;23.30;99.90;;;;;;5209563;28;20485;-72
2022/09/20 12:58:51;;;;;;;1999.90;999.90;;;23.70;99.90;;;;;;5209434;28;20140;-74
2022/09/20 13:01:26;;;;;;;1999.90;999.90;;;23.30;99.90;;;;;;5209807;28;20400;-73
2022/09/20 13:04:39;;;;;;;1999.90;999.90;;;23.10;99.90;;;;;;5209482;28;20396;-73
2022/09/20 13:07:32;;;;;;;1999.90;999.90;;;22.90;99.90;;;;;;5209195;28;20036;-74
2022/09/20 13:10:33;;;;;;;1999.90;999.90;;;23.10;99.90;;;;;;5208711;28;20060;-74
2022/09/20 13:13:30;;;;;;;1999.90;999.90;;;23.10;99.90;;;;;;5204437;28;20052;-74
2022/09/20 13:16:04;;;;;;;1999.90;999.90;;;23.30;99.90;;;;;;5209322;28;20033;-75
2022/09/20 13:18:36;;;;;;;1999.90;999.90;;;23.10;99.90;;;;;;5188452;28;20475;-75
2022/09/20 13:21:08;;;;;;;1999.90;999.90;;;23.00;99.90;;;;;;5188678;28;20041;-74
2022/09/20 13:23:53;;;;;;;1999.90;999.90;;;22.80;99.90;;;;;;5188468;28;20118;-74
2022/09/20 13:26:28;;;;;;;1999.90;999.90;;;23.10;99.90;;;;;;5187997;28;20136;-73
2022/09/20 13:29:01;;;;;;;1999.90;999.90;;;23.10;99.90;;;;;;5188526;28;20025;-74